createdAt,value
2023-03-10T00:01:22.946Z,98362.31
2023-03-10T00:03:54.289Z,98355.19
2023-03-10T00:06:25.010Z,98347.75
2023-03-10T00:08:54.294Z,98339.50
2023-03-10T00:11:23.561Z,98346.09
2023-03-10T00:13:52.219Z,98348.00
2023-03-10T00:16:22.274Z,98342.50
2023-03-10T00:18:51.339Z,98343.06
2023-03-10T00:21:24.493Z,98347.47
2023-03-10T00:23:53.864Z,98346.34
2023-03-10T00:26:24.166Z,98343.06
2023-03-10T00:28:52.845Z,98338.94
2023-03-10T00:31:24.053Z,98345.78
2023-03-10T00:33:53.377Z,98351.28
2023-03-10T00:36:25.157Z,98355.97
2023-03-10T00:38:56.098Z,98356.47
2023-03-10T00:41:26.911Z,98357.81
2023-03-10T00:43:55.532Z,98358.63
2023-03-10T00:46:24.497Z,98358.38
2023-03-10T00:48:53.590Z,98366.63
2023-03-10T00:51:24.203Z,98370.16
2023-03-10T00:53:52.909Z,98366.03
2023-03-10T00:56:23.528Z,98372.59
2023-03-10T00:58:54.565Z,98380.84
2023-03-10T01:01:25.599Z,98375.00
2023-03-10T01:03:55.894Z,98382.78
2023-03-10T01:06:26.160Z,98390.78
2023-03-10T01:08:56.283Z,98394.59
2023-03-10T01:11:27.177Z,98385.84
2023-03-10T01:13:57.794Z,98378.66
2023-03-10T01:16:27.034Z,98376.75
2023-03-10T01:18:55.757Z,98389.69
2023-03-10T01:21:27.620Z,98383.91
2023-03-10T01:23:56.715Z,98396.28
2023-03-10T01:26:25.509Z,98389.41
2023-03-10T01:28:54.168Z,98396.81
2023-03-10T01:31:22.868Z,98399.56
2023-03-10T01:33:51.547Z,98398.50
2023-03-10T01:36:22.764Z,98391.34
2023-03-10T01:38:53.368Z,98389.91
2023-03-10T01:41:22.279Z,98383.28
2023-03-10T01:43:52.356Z,98370.91
2023-03-10T01:46:49.092Z,98374.97
2023-03-10T01:49:33.072Z,98372.47
2023-03-10T01:52:06.515Z,98367.66
2023-03-10T01:54:45.651Z,98371.00
2023-03-10T01:57:16.351Z,98366.00
2023-03-10T01:59:45.530Z,98361.69
2023-03-10T02:02:14.453Z,98364.38
2023-03-10T02:04:48.470Z,98369.22
2023-03-10T02:07:20.628Z,98365.91
2023-03-10T02:09:52.678Z,98375.69
2023-03-10T02:12:21.623Z,98372.09
2023-03-10T02:14:52.977Z,98367.25
2023-03-10T02:17:24.741Z,98365.81
2023-03-10T02:20:06.576Z,98367.91
2023-03-10T02:22:35.276Z,98363.84
2023-03-10T02:25:16.035Z,98361.72
2023-03-10T02:27:46.214Z,98358.97
2023-03-10T02:30:19.763Z,98356.66
2023-03-10T02:32:54.306Z,98361.84
2023-03-10T02:35:23.436Z,98358.56
2023-03-10T02:37:51.976Z,98355.19
2023-03-10T02:40:34.024Z,98352.41
2023-03-10T02:43:06.796Z,98352.91
2023-03-10T02:45:38.758Z,98353.78
2023-03-10T02:48:09.108Z,98347.22
2023-03-10T02:50:39.793Z,98341.25
2023-03-10T02:53:12.763Z,98347.81
2023-03-10T02:55:41.450Z,98350.81
2023-03-10T02:58:11.845Z,98348.78
2023-03-10T03:00:41.128Z,98344.97
2023-03-10T03:03:10.833Z,98342.63
2023-03-10T03:05:39.849Z,98339.88
2023-03-10T03:08:10.061Z,98324.75
2023-03-10T03:10:40.135Z,98329.94
2023-03-10T03:13:10.179Z,98335.84
2023-03-10T03:15:39.187Z,98336.38
2023-03-10T03:18:08.283Z,98317.56
2023-03-10T03:20:41.009Z,98319.75
2023-03-10T03:23:09.885Z,98319.81
2023-03-10T03:25:40.739Z,98323.06
2023-03-10T03:28:12.287Z,98326.88
2023-03-10T03:30:41.721Z,98331.75
2023-03-10T03:33:10.416Z,98334.28
2023-03-10T03:35:40.548Z,98331.81
2023-03-10T03:38:09.228Z,98325.69
2023-03-10T03:40:38.652Z,98316.31
2023-03-10T03:43:07.907Z,98327.66
2023-03-10T03:45:37.930Z,98321.88
2023-03-10T03:48:06.612Z,98314.19
2023-03-10T03:50:35.210Z,98321.56
2023-03-10T03:53:03.773Z,98308.94
2023-03-10T03:55:32.391Z,98323.06
2023-03-10T03:58:00.966Z,98325.25
2023-03-10T04:00:29.571Z,98322.75
2023-03-10T04:02:59.478Z,98325.75
2023-03-10T04:05:28.166Z,98325.44
2023-03-10T04:07:56.795Z,98327.69
2023-03-10T04:10:27.164Z,98324.06
2023-03-10T04:12:55.790Z,98332.88
2023-03-10T04:15:24.794Z,98326.56
2023-03-10T04:17:53.389Z,98319.19
2023-03-10T04:20:24.438Z,98319.31
2023-03-10T04:22:53.644Z,98301.72
2023-03-10T04:25:22.203Z,98306.84
2023-03-10T04:27:50.811Z,98300.69
2023-03-10T04:30:20.925Z,98303.13
2023-03-10T04:32:49.562Z,98308.25
2023-03-10T04:35:18.284Z,98313.38
2023-03-10T04:37:48.188Z,98305.84
2023-03-10T04:40:17.283Z,98309.22
2023-03-10T04:42:45.875Z,98305.94
2023-03-10T04:45:15.076Z,98304.28
2023-03-10T04:47:43.716Z,98301.56
2023-03-10T04:50:17.477Z,98298.41
2023-03-10T04:52:50.013Z,98294.31
2023-03-10T04:55:18.941Z,98291.63
2023-03-10T04:57:47.783Z,98292.03
2023-03-10T05:00:17.018Z,98291.47
2023-03-10T05:02:45.620Z,98287.59
2023-03-10T05:05:14.274Z,98285.31
2023-03-10T05:07:43.203Z,98281.16
2023-03-10T05:10:14.169Z,98279.91
2023-03-10T05:12:43.177Z,98278.63
2023-03-10T05:15:12.548Z,98276.31
2023-03-10T05:17:41.114Z,98282.88
2023-03-10T05:20:11.697Z,98275.03
2023-03-10T05:22:40.507Z,98275.56
2023-03-10T05:25:11.122Z,98274.53
2023-03-10T05:27:41.234Z,98275.16
2023-03-10T05:30:12.439Z,98278.13
2023-03-10T05:32:41.000Z,98274.78
2023-03-10T05:35:10.615Z,98277.66
2023-03-10T05:37:39.859Z,98272.09
2023-03-10T05:40:09.752Z,98272.91
2023-03-10T05:42:38.354Z,98269.03
2023-03-10T05:45:11.631Z,98266.84
2023-03-10T05:47:40.209Z,98266.75
2023-03-10T05:50:09.913Z,98257.69
2023-03-10T05:52:39.468Z,98257.13
2023-03-10T05:55:10.002Z,98264.16
2023-03-10T05:57:38.575Z,98259.69
2023-03-10T06:00:10.468Z,98263.59
2023-03-10T06:02:40.160Z,98269.78
2023-03-10T06:05:11.433Z,98263.81
2023-03-10T06:07:40.958Z,98258.75
2023-03-10T06:10:10.782Z,98261.09
2023-03-10T06:12:39.784Z,98259.88
2023-03-10T06:15:10.943Z,98260.19
2023-03-10T06:17:39.516Z,98271.84
2023-03-10T06:20:08.894Z,98276.31
2023-03-10T06:22:37.486Z,98272.50
2023-03-10T06:25:06.533Z,98273.91
2023-03-10T06:27:35.244Z,98283.81
2023-03-10T06:30:04.025Z,98279.91
2023-03-10T06:32:34.955Z,98271.28
2023-03-10T06:35:03.651Z,98280.03
2023-03-10T06:37:32.223Z,98271.78
2023-03-10T06:40:00.746Z,98280.38
2023-03-10T06:42:29.365Z,98285.22
2023-03-10T06:44:57.953Z,98283.94
2023-03-10T06:47:26.596Z,98281.03
2023-03-10T06:49:56.568Z,98279.91
2023-03-10T06:52:25.880Z,98273.94
2023-03-10T06:54:54.489Z,98275.72
2023-03-10T06:57:23.073Z,98274.38
2023-03-10T06:59:51.672Z,98282.41
2023-03-10T07:02:20.377Z,98289.91
2023-03-10T07:04:49.252Z,98291.69
2023-03-10T07:07:19.295Z,98297.53
2023-03-10T07:09:47.859Z,98297.84
2023-03-10T07:12:16.418Z,98298.34
2023-03-10T07:14:44.959Z,98300.34
2023-03-10T07:17:13.569Z,98301.97
2023-03-10T07:19:42.168Z,98301.91
2023-03-10T07:22:11.429Z,98304.66
2023-03-10T07:24:41.459Z,98299.28
2023-03-10T07:27:10.098Z,98303.09
2023-03-10T07:29:38.658Z,98309.16
2023-03-10T07:32:07.586Z,98319.63
2023-03-10T07:34:36.153Z,98312.13
2023-03-10T07:37:04.739Z,98314.09
2023-03-10T07:39:33.297Z,98318.06
2023-03-10T07:42:03.277Z,98312.41
2023-03-10T07:44:31.859Z,98311.13
2023-03-10T07:47:00.435Z,98319.53
2023-03-10T07:49:29.028Z,98317.13
2023-03-10T07:51:57.640Z,98311.34
2023-03-10T07:54:26.262Z,98308.00
2023-03-10T07:56:54.929Z,98306.19
2023-03-10T07:59:24.864Z,98312.00
2023-03-10T08:01:53.445Z,98310.69
2023-03-10T08:04:22.129Z,98311.50
2023-03-10T08:06:50.792Z,98310.22
2023-03-10T08:09:19.323Z,98315.09
2023-03-10T08:11:47.891Z,98317.59
2023-03-10T08:14:20.880Z,98321.56
2023-03-10T08:16:51.219Z,98332.47
2023-03-10T08:19:19.822Z,98327.22
2023-03-10T08:21:48.398Z,98335.25
2023-03-10T08:24:16.967Z,98331.06
2023-03-10T08:26:45.753Z,98332.00
2023-03-10T08:29:14.356Z,98325.63
2023-03-10T08:31:43.621Z,98336.31
2023-03-10T08:34:13.606Z,98336.56
2023-03-10T08:36:42.771Z,98327.81
2023-03-10T08:39:13.263Z,98327.16
2023-03-10T08:41:46.032Z,98339.31
2023-03-10T08:44:17.734Z,98333.56
2023-03-10T08:46:48.132Z,98340.13
2023-03-10T08:49:19.988Z,98334.56
2023-03-10T08:51:49.002Z,98331.72
2023-03-10T08:54:19.872Z,98340.69
2023-03-10T08:56:48.827Z,98329.97
2023-03-10T08:59:18.269Z,98331.72
2023-03-10T09:01:47.406Z,98334.81
2023-03-10T09:04:17.434Z,98338.94
2023-03-10T09:06:46.016Z,98334.47
2023-03-10T09:09:14.666Z,98336.56
2023-03-10T09:11:43.608Z,98336.13
2023-03-10T09:14:15.019Z,98343.31
2023-03-10T09:16:45.641Z,98344.72
2023-03-10T09:19:14.282Z,98334.66
2023-03-10T09:21:44.224Z,98340.00
2023-03-10T09:24:12.955Z,98339.88
2023-03-10T09:26:44.497Z,98339.63
2023-03-10T09:29:13.330Z,98347.78
2023-03-10T09:31:43.244Z,98351.06
2023-03-10T09:34:12.672Z,98343.44
2023-03-10T09:36:41.403Z,98351.91
2023-03-10T09:39:11.366Z,98353.78
2023-03-10T09:42:35.655Z,98355.13
2023-03-10T09:45:20.851Z,98354.53
2023-03-10T09:48:13.526Z,98352.00
2023-03-10T09:50:46.206Z,98357.13
2023-03-10T09:53:39.985Z,98358.88
2023-03-10T09:56:15.772Z,98352.91
2023-03-10T09:58:47.306Z,98348.34
2023-03-10T10:01:18.862Z,98353.44
2023-03-10T10:03:53.491Z,98356.53
2023-03-10T10:06:28.324Z,98352.00
2023-03-10T10:09:05.687Z,98357.91
2023-03-10T10:11:36.621Z,98358.28
2023-03-10T10:14:40.146Z,98361.03
2023-03-10T10:17:19.016Z,98359.44
2023-03-10T10:19:49.229Z,98361.47
2023-03-10T10:22:24.472Z,98357.50
2023-03-10T10:25:15.785Z,98343.38
2023-03-10T10:27:47.850Z,98353.88
2023-03-10T10:30:36.526Z,98355.13
2023-03-10T10:33:07.229Z,98357.78
2023-03-10T10:35:38.205Z,98358.38
2023-03-10T10:38:18.714Z,98362.16
2023-03-10T10:40:52.867Z,98357.28
2023-03-10T10:43:23.620Z,98364.00
2023-03-10T10:45:55.550Z,98358.91
2023-03-10T10:48:38.663Z,98367.41
2023-03-10T10:51:21.286Z,98364.31
2023-03-10T10:53:50.453Z,98353.66
2023-03-10T10:56:21.164Z,98360.22
2023-03-10T10:59:06.420Z,98360.78
2023-03-10T11:02:00.154Z,98351.09
2023-03-10T11:04:31.132Z,98356.97
2023-03-10T11:07:13.610Z,98353.06
2023-03-10T11:09:41.900Z,98346.38
2023-03-10T11:12:20.643Z,98343.53
2023-03-10T11:15:07.537Z,98341.09
2023-03-10T11:17:44.032Z,98341.25
2023-03-10T11:20:25.839Z,98338.47
2023-03-10T11:23:03.854Z,98334.94
2023-03-10T11:25:39.673Z,98340.16
2023-03-10T11:28:38.149Z,98337.06
2023-03-10T11:31:26.454Z,98333.00
2023-03-10T11:34:05.353Z,98331.38
2023-03-10T11:36:55.467Z,98336.72
2023-03-10T11:39:40.089Z,98342.78
2023-03-10T11:42:20.042Z,98340.72
2023-03-10T11:45:04.774Z,98346.53
2023-03-10T11:47:55.871Z,98343.63
2023-03-10T11:50:37.409Z,98337.09
2023-03-10T11:53:13.423Z,98343.16
2023-03-10T11:55:44.740Z,98336.16
2023-03-10T11:58:25.570Z,98339.88
2023-03-10T12:00:55.344Z,98336.38
2023-03-10T12:03:43.397Z,98331.41
2023-03-10T12:06:18.837Z,98327.75
2023-03-10T12:08:50.824Z,98321.63
2023-03-10T12:11:25.289Z,98316.06
2023-03-10T12:13:59.725Z,98306.03
2023-03-10T12:16:31.732Z,98305.28
2023-03-10T12:19:01.645Z,98307.69
2023-03-10T12:21:31.891Z,98302.66
2023-03-10T12:24:02.938Z,98300.94
2023-03-10T12:27:04.482Z,98305.22
2023-03-10T12:29:42.936Z,98303.69
2023-03-10T12:32:47.210Z,98299.78
2023-03-10T12:35:50.765Z,98297.03
2023-03-10T12:38:35.410Z,98294.72
2023-03-10T12:41:04.785Z,98289.25
2023-03-10T12:43:58.403Z,98292.31
2023-03-10T12:46:45.560Z,98290.81
2023-03-10T12:49:34.091Z,98286.72
2023-03-10T12:52:27.960Z,98270.91
2023-03-10T12:55:15.645Z,98271.66
2023-03-10T12:58:01.553Z,98262.63
2023-03-10T13:00:40.643Z,98259.03
2023-03-10T13:03:35.488Z,98249.97
2023-03-10T13:06:08.174Z,98247.63
2023-03-10T13:08:45.042Z,98244.00
2023-03-10T13:11:32.062Z,98246.88
2023-03-10T13:14:05.208Z,98250.47
2023-03-10T13:16:36.422Z,98250.63
2023-03-10T13:19:06.395Z,98241.63
2023-03-10T13:21:38.493Z,98233.03
2023-03-10T13:24:26.363Z,98229.66
2023-03-10T13:27:07.104Z,98223.00
2023-03-10T13:29:36.150Z,98220.22
2023-03-10T13:32:04.904Z,98213.50
2023-03-10T13:34:36.546Z,98222.63
2023-03-10T13:37:06.679Z,98224.31
2023-03-10T13:39:36.565Z,98232.78
2023-03-10T13:42:19.222Z,98223.44
2023-03-10T13:44:47.631Z,98222.78
2023-03-10T13:47:19.334Z,98219.06
2023-03-10T13:49:51.302Z,98226.78
2023-03-10T13:52:23.852Z,98233.00
2023-03-10T13:54:53.800Z,98233.44
2023-03-10T13:57:28.184Z,98239.78
2023-03-10T13:59:59.559Z,98249.47
2023-03-10T14:02:31.798Z,98243.94
2023-03-10T14:05:02.649Z,98249.09
2023-03-10T14:07:33.094Z,98245.66
2023-03-10T14:10:20.319Z,98264.59
2023-03-10T14:12:51.786Z,98261.69
2023-03-10T14:15:27.005Z,98261.03
2023-03-10T14:18:20.593Z,98287.75
2023-03-10T14:20:49.365Z,98282.59
2023-03-10T14:23:29.432Z,98282.53
2023-03-10T14:25:59.452Z,98283.19
2023-03-10T14:28:29.999Z,98318.53
2023-03-10T14:30:58.937Z,98312.78
2023-03-10T14:33:27.560Z,98313.66
2023-03-10T14:35:56.170Z,98314.47
2023-03-10T14:38:24.921Z,98313.94
2023-03-10T14:40:56.648Z,98319.97
2023-03-10T14:43:28.770Z,98324.47
2023-03-10T14:46:00.265Z,98333.28
2023-03-10T14:48:34.986Z,98336.53
2023-03-10T14:51:03.412Z,98340.69
2023-03-10T14:53:33.455Z,98344.28
2023-03-10T14:56:03.767Z,98354.97
2023-03-10T14:58:38.044Z,98350.59
2023-03-10T15:01:07.505Z,98361.84
2023-03-10T15:03:35.887Z,98364.59
2023-03-10T15:06:04.198Z,98370.91
2023-03-10T15:08:32.512Z,98369.53
2023-03-10T15:11:00.891Z,98372.56
2023-03-10T15:13:29.412Z,98380.50
2023-03-10T15:15:59.276Z,98385.19
2023-03-10T15:18:27.682Z,98373.34
2023-03-10T15:20:59.081Z,98368.41
2023-03-10T15:23:28.754Z,98371.69
2023-03-10T15:25:58.172Z,98363.19
2023-03-10T15:28:26.862Z,98367.00
2023-03-10T15:30:55.746Z,98354.72
2023-03-10T15:33:25.482Z,98360.75
2023-03-10T15:35:55.008Z,98357.19
2023-03-10T15:38:23.446Z,98359.13
2023-03-10T15:40:52.062Z,98342.09
2023-03-10T15:43:20.436Z,98347.81
2023-03-10T15:45:50.215Z,98360.19
2023-03-10T15:48:18.818Z,98352.94
2023-03-10T15:50:48.536Z,98352.75
2023-03-10T15:53:17.010Z,98349.41
2023-03-10T15:55:45.354Z,98358.13
2023-03-10T15:58:13.951Z,98369.75
2023-03-10T16:00:44.012Z,98400.44
2023-03-10T16:03:12.452Z,98443.03
2023-03-10T16:05:49.156Z,98464.13
2023-03-10T16:08:19.134Z,98477.88
2023-03-10T16:10:53.695Z,98509.44
2023-03-10T16:13:23.835Z,98535.44
2023-03-10T16:15:52.987Z,98554.19
2023-03-10T16:18:21.432Z,98581.75
2023-03-10T16:20:58.818Z,98593.09
2023-03-10T16:23:27.729Z,98620.53
2023-03-10T16:26:09.055Z,98638.91
2023-03-10T16:28:38.614Z,98663.25
2023-03-10T16:31:07.921Z,98680.13
2023-03-10T16:33:36.684Z,98714.13
2023-03-10T16:36:08.964Z,98741.00
2023-03-10T16:38:37.801Z,98764.16
2023-03-10T16:41:07.816Z,98782.00
2023-03-10T16:43:36.420Z,98807.63
2023-03-10T16:46:08.224Z,98841.09
2023-03-10T16:48:42.050Z,98873.78
2023-03-10T16:51:23.727Z,98884.28
2023-03-10T16:53:53.425Z,98900.41
2023-03-10T16:56:23.076Z,98919.38
2023-03-10T16:58:52.658Z,98923.84
2023-03-10T17:01:24.043Z,98964.66
2023-03-10T17:03:53.108Z,98967.94
2023-03-10T17:06:25.240Z,98980.03
2023-03-10T17:08:55.212Z,98987.13
2023-03-10T17:11:26.933Z,98997.56
2023-03-10T17:13:57.460Z,99008.13
2023-03-10T17:16:29.494Z,99043.19
2023-03-10T17:19:00.142Z,99055.69
2023-03-10T17:21:33.286Z,99056.22
2023-03-10T17:24:01.872Z,99086.25
2023-03-10T17:26:30.864Z,99085.00
2023-03-10T17:28:59.797Z,99105.22
2023-03-10T17:31:29.877Z,99102.97
2023-03-10T17:34:00.511Z,99137.06
2023-03-10T17:36:31.441Z,99162.78
2023-03-10T17:39:02.108Z,99163.19
2023-03-10T17:41:32.050Z,99194.06
2023-03-10T17:44:00.678Z,99211.97
2023-03-10T17:46:30.828Z,99215.13
2023-03-10T17:49:00.212Z,99222.84
2023-03-10T17:51:31.978Z,99246.84
2023-03-10T17:54:02.109Z,99281.13
2023-03-10T17:56:30.873Z,99282.16
2023-03-10T17:58:59.938Z,99305.94
2023-03-10T18:01:30.367Z,99313.38
2023-03-10T18:04:00.598Z,99326.22
2023-03-10T18:06:32.102Z,99321.69
2023-03-10T18:09:02.303Z,99355.75
2023-03-10T18:11:31.118Z,99372.03
2023-03-10T18:14:02.399Z,99400.59
2023-03-10T18:16:34.764Z,99414.94
2023-03-10T18:19:04.118Z,99418.81
2023-03-10T18:21:34.217Z,99436.78
2023-03-10T18:24:03.934Z,99447.69
2023-03-10T18:26:33.783Z,99455.28
2023-03-10T18:29:02.394Z,99481.25
2023-03-10T18:31:33.055Z,99492.28
2023-03-10T18:34:02.228Z,99511.97
2023-03-10T18:36:33.017Z,99528.31
2023-03-10T18:39:05.635Z,99530.69
2023-03-10T18:41:35.456Z,99556.88
2023-03-10T18:44:04.181Z,99570.59
2023-03-10T18:46:32.819Z,99574.00
2023-03-10T18:49:01.394Z,99578.41
2023-03-10T18:51:30.656Z,99599.53
2023-03-10T18:53:59.449Z,99591.88
2023-03-10T18:56:29.543Z,99598.47
2023-03-10T18:58:58.188Z,99598.19
2023-03-10T19:01:27.109Z,99601.53
2023-03-10T19:03:55.834Z,99616.88
2023-03-10T19:06:24.434Z,99628.78
2023-03-10T19:08:53.736Z,99638.28
2023-03-10T19:11:24.525Z,99637.84
2023-03-10T19:13:54.715Z,99634.25
2023-03-10T19:16:23.341Z,99651.53
2023-03-10T19:18:51.951Z,99651.97
2023-03-10T19:21:22.897Z,99658.34
2023-03-10T19:23:51.772Z,99666.16
2023-03-10T19:26:20.411Z,99675.31
2023-03-10T19:28:48.959Z,99684.56
2023-03-10T19:31:18.966Z,99688.63
2023-03-10T19:33:47.955Z,99695.53
2023-03-10T19:36:17.128Z,99707.31
2023-03-10T19:38:46.313Z,99718.00
2023-03-10T19:41:16.572Z,99727.94
2023-03-10T19:43:46.045Z,99740.41
2023-03-10T19:46:16.659Z,99750.66
2023-03-10T19:48:46.920Z,99760.53
2023-03-10T19:51:21.969Z,99771.41
2023-03-10T19:53:51.656Z,99768.84
2023-03-10T19:56:21.640Z,99783.38
2023-03-10T19:58:51.292Z,99778.75
2023-03-10T20:01:24.400Z,99776.88
2023-03-10T20:03:55.968Z,99788.94
2023-03-10T20:06:25.625Z,99785.00
2023-03-10T20:08:54.731Z,99801.22
2023-03-10T20:11:23.916Z,99793.34
2023-03-10T20:13:54.586Z,99821.97
2023-03-10T20:16:24.308Z,99814.75
2023-03-10T20:18:54.577Z,99818.03
2023-03-10T20:21:23.399Z,99820.91
2023-03-10T20:23:53.299Z,99825.59
2023-03-10T20:26:23.403Z,99823.72
2023-03-10T20:28:52.380Z,99828.88
2023-03-10T20:31:22.792Z,99839.09
2023-03-10T20:33:51.674Z,99836.81
2023-03-10T20:36:21.725Z,99830.88
2023-03-10T20:38:50.282Z,99837.44
2023-03-10T20:41:19.934Z,99855.69
2023-03-10T20:43:49.026Z,99863.59
2023-03-10T20:46:19.405Z,99869.19
2023-03-10T20:48:50.688Z,99868.50
2023-03-10T20:51:22.658Z,99876.75
2023-03-10T20:53:51.977Z,99881.66
2023-03-10T20:56:20.603Z,99879.97
2023-03-10T20:58:49.168Z,99894.22
2023-03-10T21:01:19.522Z,99874.59
2023-03-10T21:03:48.367Z,99884.63
2023-03-10T21:06:16.992Z,99902.97
2023-03-10T21:08:47.691Z,99907.91
2023-03-10T21:11:16.657Z,99908.72
2023-03-10T21:13:45.341Z,99920.22
2023-03-10T21:16:14.034Z,99922.34
2023-03-10T21:18:42.601Z,99924.16
2023-03-10T21:21:13.719Z,99928.47
2023-03-10T21:23:42.655Z,99934.69
2023-03-10T21:26:13.499Z,99926.16
2023-03-10T21:28:42.463Z,99929.06
2023-03-10T21:31:11.718Z,99938.91
2023-03-10T21:33:41.805Z,99948.09
2023-03-10T21:36:13.057Z,99951.50
2023-03-10T21:38:41.638Z,99953.88
2023-03-10T21:41:12.178Z,99954.28
2023-03-10T21:43:40.812Z,99962.66
2023-03-10T21:46:09.493Z,99965.91
2023-03-10T21:48:38.438Z,99974.72
2023-03-10T21:51:09.804Z,99983.56
2023-03-10T21:53:38.492Z,99992.72
2023-03-10T21:56:08.192Z,99991.13
2023-03-10T21:58:38.637Z,99995.72
2023-03-10T22:01:08.376Z,100005.97
2023-03-10T22:03:37.251Z,100012.94
2023-03-10T22:06:06.521Z,100017.94
2023-03-10T22:08:36.603Z,100016.25
2023-03-10T22:11:07.698Z,100033.34
2023-03-10T22:13:38.354Z,100038.06
2023-03-10T22:16:10.654Z,100038.09
2023-03-10T22:18:39.302Z,100047.38
2023-03-10T22:21:07.996Z,100043.34
2023-03-10T22:23:36.597Z,100060.31
2023-03-10T22:26:05.537Z,100056.41
2023-03-10T22:28:34.490Z,100054.50
2023-03-10T22:31:07.077Z,100064.78
2023-03-10T22:33:36.000Z,100066.09
2023-03-10T22:36:05.700Z,100080.78
2023-03-10T22:38:34.494Z,100074.03
2023-03-10T22:41:03.207Z,100089.88
2023-03-10T22:43:31.787Z,100079.06
2023-03-10T22:46:00.386Z,100095.47
2023-03-10T22:48:30.304Z,100097.09
2023-03-10T22:50:58.887Z,100089.19
2023-03-10T22:53:27.578Z,100106.00
2023-03-10T22:55:56.181Z,100108.59
2023-03-10T22:58:24.747Z,100115.88
2023-03-10T23:00:53.367Z,100127.09
2023-03-10T23:03:22.044Z,100135.56
2023-03-10T23:05:52.155Z,100137.75
2023-03-10T23:08:20.867Z,100134.34
2023-03-10T23:10:49.460Z,100130.59
2023-03-10T23:13:18.223Z,100133.72
2023-03-10T23:15:47.879Z,100146.06
2023-03-10T23:18:16.513Z,100137.88
2023-03-10T23:20:47.873Z,100147.75
2023-03-10T23:23:19.128Z,100156.41
2023-03-10T23:25:51.023Z,100152.88
2023-03-10T23:28:21.199Z,100160.31
2023-03-10T23:30:51.362Z,100160.84
2023-03-10T23:33:22.294Z,100166.34
2023-03-10T23:35:54.289Z,100166.78
2023-03-10T23:38:25.833Z,100169.63
2023-03-10T23:40:55.523Z,100176.69
2023-03-10T23:43:24.535Z,100176.88
2023-03-10T23:45:53.328Z,100190.03
2023-03-10T23:48:24.641Z,100182.09
2023-03-10T23:50:53.389Z,100200.41
2023-03-10T23:53:23.364Z,100209.72
2023-03-10T23:55:52.175Z,100206.72
2023-03-10T23:58:21.229Z,100206.16
